createdAt,value
2023-02-02T00:01:11.872Z,0.35
2023-02-02T00:03:39.051Z,0.36
2023-02-02T00:06:06.207Z,0.36
2023-02-02T00:08:35.496Z,0.36
2023-02-02T00:11:03.047Z,0.36
2023-02-02T00:13:29.873Z,0.36
2023-02-02T00:15:56.783Z,0.36
2023-02-02T00:18:23.665Z,0.35
2023-02-02T00:20:50.447Z,0.35
2023-02-02T00:23:17.262Z,0.36
2023-02-02T00:25:44.238Z,0.36
2023-02-02T00:28:11.205Z,0.33
2023-02-02T00:30:38.160Z,0.30
2023-02-02T00:33:05.566Z,0.32
2023-02-02T00:35:32.451Z,0.33
2023-02-02T00:37:59.403Z,0.34
2023-02-02T00:40:26.403Z,0.34
2023-02-02T00:42:53.400Z,0.34
2023-02-02T00:45:20.672Z,0.35
2023-02-02T00:47:48.647Z,0.36
2023-02-02T00:50:17.242Z,0.37
2023-02-02T00:52:44.085Z,0.37
2023-02-02T00:55:11.741Z,0.37
2023-02-02T00:57:38.921Z,0.38
2023-02-02T01:00:09.114Z,0.39
2023-02-02T01:02:35.896Z,0.39
2023-02-02T01:05:03.179Z,0.40
2023-02-02T01:07:30.586Z,0.39
2023-02-02T01:09:57.423Z,0.39
2023-02-02T01:12:24.272Z,0.39
2023-02-02T01:14:51.212Z,0.39
2023-02-02T01:17:18.953Z,0.39
2023-02-02T01:19:45.858Z,0.38
2023-02-02T01:22:12.817Z,0.37
2023-02-02T01:24:39.632Z,0.37
2023-02-02T01:27:06.559Z,0.37
2023-02-02T01:29:33.392Z,0.37
2023-02-02T01:32:00.452Z,0.35
2023-02-02T01:34:27.623Z,0.35
2023-02-02T01:36:54.525Z,0.35
2023-02-02T01:39:21.363Z,0.34
2023-02-02T01:41:48.296Z,0.34
2023-02-02T01:44:33.839Z,0.32
2023-02-02T01:47:01.895Z,0.29
2023-02-02T01:49:29.229Z,0.28
2023-02-02T01:51:58.591Z,0.28
2023-02-02T01:54:37.913Z,0.28
2023-02-02T01:57:08.005Z,0.25
2023-02-02T01:59:35.302Z,0.25
2023-02-02T02:02:02.689Z,0.24
2023-02-02T02:04:31.160Z,0.22
2023-02-02T02:06:59.538Z,0.22
2023-02-02T02:09:26.477Z,0.20
2023-02-02T02:11:53.919Z,0.19
2023-02-02T02:14:41.099Z,0.19
2023-02-02T02:17:24.924Z,0.17
2023-02-02T02:20:13.654Z,0.17
2023-02-02T02:22:59.763Z,0.15
2023-02-02T02:25:57.700Z,0.15
2023-02-02T02:28:35.399Z,0.15
2023-02-02T02:31:02.320Z,0.16
2023-02-02T02:33:47.729Z,0.15
2023-02-02T02:36:33.764Z,0.15
2023-02-02T02:39:21.160Z,0.14
2023-02-02T02:41:49.877Z,0.14
2023-02-02T02:44:19.932Z,0.15
2023-02-02T02:46:47.701Z,0.14
2023-02-02T02:49:15.251Z,0.14
2023-02-02T02:51:47.094Z,0.14
2023-02-02T02:54:20.410Z,0.14
2023-02-02T02:57:05.368Z,0.12
2023-02-02T02:59:41.470Z,0.11
2023-02-02T03:02:23.939Z,0.11
2023-02-02T03:04:50.885Z,0.12
2023-02-02T03:07:23.080Z,0.13
2023-02-02T03:09:51.423Z,0.14
2023-02-02T03:12:18.306Z,0.15
2023-02-02T03:14:45.209Z,0.15
2023-02-02T03:17:12.147Z,0.13
2023-02-02T03:19:39.170Z,0.13
2023-02-02T03:22:06.009Z,0.13
2023-02-02T03:24:32.814Z,0.15
2023-02-02T03:26:59.686Z,0.15
2023-02-02T03:29:27.148Z,0.16
2023-02-02T03:31:54.050Z,0.17
2023-02-02T03:34:20.939Z,0.14
2023-02-02T03:36:47.863Z,0.13
2023-02-02T03:39:14.697Z,0.13
2023-02-02T03:41:41.594Z,0.13
2023-02-02T03:44:08.587Z,0.13
2023-02-02T03:46:35.491Z,0.13
2023-02-02T03:49:02.453Z,0.13
2023-02-02T03:51:29.494Z,0.11
2023-02-02T03:53:56.443Z,0.10
2023-02-02T03:56:23.348Z,0.11
2023-02-02T03:58:50.174Z,0.10
2023-02-02T04:01:17.197Z,0.10
2023-02-02T04:03:45.800Z,0.10
2023-02-02T04:06:12.752Z,0.11
2023-02-02T04:08:39.595Z,0.11
2023-02-02T04:11:09.164Z,0.12
2023-02-02T04:13:36.120Z,0.13
2023-02-02T04:16:03.263Z,0.14
2023-02-02T04:18:30.162Z,0.14
2023-02-02T04:21:01.113Z,0.15
2023-02-02T04:23:28.529Z,0.16
2023-02-02T04:25:55.534Z,0.15
2023-02-02T04:28:23.472Z,0.16
2023-02-02T04:30:51.015Z,0.17
2023-02-02T04:33:18.133Z,0.15
2023-02-02T04:35:45.249Z,0.15
2023-02-02T04:38:12.616Z,0.15
2023-02-02T04:40:43.454Z,0.15
2023-02-02T04:43:10.404Z,0.15
2023-02-02T04:45:37.599Z,0.15
2023-02-02T04:48:05.158Z,0.16
2023-02-02T04:50:32.121Z,0.16
2023-02-02T04:52:58.997Z,0.17
2023-02-02T04:55:26.310Z,0.18
2023-02-02T04:57:53.410Z,0.19
2023-02-02T05:00:20.537Z,0.18
2023-02-02T05:02:47.783Z,0.18
2023-02-02T05:05:14.826Z,0.18
2023-02-02T05:07:41.832Z,0.18
2023-02-02T05:10:09.387Z,0.19
2023-02-02T05:12:36.231Z,0.19
2023-02-02T05:15:04.884Z,0.19
2023-02-02T05:17:32.432Z,0.19
2023-02-02T05:19:59.596Z,0.19
2023-02-02T05:22:26.779Z,0.19
2023-02-02T05:24:53.802Z,0.19
2023-02-02T05:27:20.727Z,0.20
2023-02-02T05:29:47.819Z,0.20
2023-02-02T05:32:14.854Z,0.20
2023-02-02T05:34:41.717Z,0.21
2023-02-02T05:37:08.638Z,0.20
2023-02-02T05:39:35.421Z,0.20
2023-02-02T05:42:02.329Z,0.20
2023-02-02T05:44:29.147Z,0.20
2023-02-02T05:46:56.005Z,0.20
2023-02-02T05:49:22.853Z,0.20
2023-02-02T05:51:51.644Z,0.20
2023-02-02T05:54:20.049Z,0.19
2023-02-02T05:56:47.981Z,0.20
2023-02-02T05:59:15.185Z,0.20
2023-02-02T06:01:42.159Z,0.21
2023-02-02T06:04:09.206Z,0.20
2023-02-02T06:06:37.425Z,0.18
2023-02-02T06:09:04.926Z,0.17
2023-02-02T06:11:31.926Z,0.16
2023-02-02T06:13:58.863Z,0.16
2023-02-02T06:16:26.024Z,0.17
2023-02-02T06:18:53.473Z,0.19
2023-02-02T06:21:22.778Z,0.21
2023-02-02T06:23:50.042Z,0.23
2023-02-02T06:26:17.706Z,0.24
2023-02-02T06:28:48.340Z,0.26
2023-02-02T06:31:18.782Z,0.27
2023-02-02T06:33:46.668Z,0.27
2023-02-02T06:36:13.796Z,0.28
2023-02-02T06:38:40.748Z,0.30
2023-02-02T06:41:07.801Z,0.33
2023-02-02T06:43:34.731Z,0.35
2023-02-02T06:46:01.571Z,0.34
2023-02-02T06:48:28.522Z,0.34
2023-02-02T06:50:59.035Z,0.34
2023-02-02T06:53:26.660Z,0.34
2023-02-02T06:55:57.966Z,0.35
2023-02-02T06:58:24.762Z,0.34
2023-02-02T07:00:52.012Z,0.38
2023-02-02T07:03:20.927Z,0.40
2023-02-02T07:05:57.225Z,0.43
2023-02-02T07:08:24.037Z,0.46
2023-02-02T07:11:14.513Z,0.48
2023-02-02T07:13:37.794Z,0.51
2023-02-02T07:16:05.239Z,0.54
2023-02-02T07:18:32.180Z,0.55
2023-02-02T07:20:59.981Z,0.57
2023-02-02T07:23:27.412Z,0.59
2023-02-02T07:26:01.221Z,0.63
2023-02-02T07:28:28.393Z,0.67
2023-02-02T07:30:55.629Z,0.71
2023-02-02T07:33:22.917Z,0.77
2023-02-02T07:35:49.884Z,0.85
2023-02-02T07:38:16.745Z,0.93
2023-02-02T07:40:44.634Z,1.00
2023-02-02T07:43:11.584Z,1.04
2023-02-02T07:45:39.320Z,1.05
2023-02-02T07:48:06.414Z,1.06
2023-02-02T07:50:33.364Z,1.07
2023-02-02T07:53:00.605Z,1.06
2023-02-02T07:55:27.961Z,1.04
2023-02-02T07:57:58.354Z,1.02
2023-02-02T08:00:26.145Z,1.00
2023-02-02T08:02:53.215Z,1.01
2023-02-02T08:05:22.051Z,1.03
2023-02-02T08:07:49.235Z,1.05
2023-02-02T08:10:16.206Z,1.08
2023-02-02T08:12:43.064Z,1.12
2023-02-02T08:15:13.225Z,1.15
2023-02-02T08:17:43.728Z,1.20
2023-02-02T08:20:12.482Z,1.28
2023-02-02T08:22:39.578Z,1.30
2023-02-02T08:25:06.762Z,1.38
2023-02-02T08:27:33.749Z,1.39
2023-02-02T08:30:01.064Z,1.37
2023-02-02T08:32:30.411Z,1.29
2023-02-02T08:34:57.361Z,1.17
2023-02-02T08:37:24.419Z,1.07
2023-02-02T08:39:51.303Z,0.97
2023-02-02T08:42:18.388Z,0.91
2023-02-02T08:46:07.730Z,0.86
2023-02-02T08:47:32.332Z,0.78
2023-02-02T08:49:59.611Z,0.75
2023-02-02T08:52:26.758Z,0.78
2023-02-02T08:54:53.682Z,0.81
2023-02-02T08:57:20.765Z,0.89
2023-02-02T08:59:47.721Z,0.96
2023-02-02T09:02:16.292Z,1.06
2023-02-02T09:04:44.922Z,1.09
2023-02-02T09:07:11.900Z,1.15
2023-02-02T09:09:38.781Z,1.30
2023-02-02T09:12:05.877Z,1.43
2023-02-02T09:14:32.797Z,1.57
2023-02-02T09:17:00.113Z,1.65
2023-02-02T09:19:27.047Z,1.70
2023-02-02T09:21:53.881Z,1.71
2023-02-02T09:24:20.756Z,1.67
2023-02-02T09:26:47.707Z,1.67
2023-02-02T09:29:17.386Z,1.68
2023-02-02T09:31:44.655Z,1.72
2023-02-02T09:34:12.499Z,1.73
2023-02-02T09:36:41.926Z,1.76
2023-02-02T09:39:12.175Z,1.70
2023-02-02T09:41:40.001Z,1.67
2023-02-02T09:44:25.854Z,1.59
2023-02-02T09:47:11.495Z,1.54
2023-02-02T09:49:52.329Z,1.58
2023-02-02T09:52:22.367Z,1.66
2023-02-02T09:54:51.865Z,1.75
2023-02-02T09:57:39.076Z,1.77
2023-02-02T10:00:10.288Z,1.81
2023-02-02T10:02:45.358Z,1.79
2023-02-02T10:05:18.841Z,1.80
2023-02-02T10:07:48.270Z,1.88
2023-02-02T10:10:32.783Z,1.98
2023-02-02T10:13:06.417Z,2.00
2023-02-02T10:15:45.672Z,1.96
2023-02-02T10:18:18.437Z,1.87
2023-02-02T10:20:45.495Z,1.85
2023-02-02T10:23:16.540Z,1.83
2023-02-02T10:25:49.796Z,1.76
2023-02-02T10:28:18.111Z,1.72
2023-02-02T10:30:55.093Z,1.67
2023-02-02T10:33:48.262Z,1.62
2023-02-02T10:36:27.340Z,1.61
2023-02-02T10:39:03.012Z,1.62
2023-02-02T10:41:56.125Z,1.70
2023-02-02T10:44:43.295Z,1.94
2023-02-02T10:47:12.684Z,2.26
2023-02-02T10:49:40.692Z,2.76
2023-02-02T10:52:10.777Z,3.25
2023-02-02T10:54:56.667Z,3.48
2023-02-02T10:57:34.350Z,3.59
2023-02-02T11:00:10.497Z,3.60
2023-02-02T11:02:37.483Z,3.87
2023-02-02T11:05:23.413Z,4.09
2023-02-02T11:07:53.680Z,4.43
2023-02-02T11:10:20.715Z,4.75
2023-02-02T11:12:52.517Z,5.39
2023-02-02T11:15:25.308Z,6.39
2023-02-02T11:17:52.328Z,7.71
2023-02-02T11:20:25.428Z,8.67
2023-02-02T11:22:59.971Z,8.59
2023-02-02T11:25:31.844Z,8.91
2023-02-02T11:28:00.391Z,8.49
2023-02-02T11:30:33.717Z,7.82
2023-02-02T11:33:19.060Z,7.01
2023-02-02T11:35:54.293Z,6.11
2023-02-02T11:38:21.562Z,5.56
2023-02-02T11:41:10.545Z,5.27
2023-02-02T11:43:41.636Z,4.83
2023-02-02T11:46:35.113Z,4.41
2023-02-02T11:49:04.537Z,4.17
2023-02-02T11:51:31.954Z,3.99
2023-02-02T11:54:01.586Z,3.88
2023-02-02T11:56:28.828Z,3.83
2023-02-02T11:58:58.711Z,3.77
2023-02-02T12:01:30.430Z,3.78
2023-02-02T12:04:01.890Z,3.82
2023-02-02T12:06:38.478Z,3.82
2023-02-02T12:09:11.503Z,3.86
2023-02-02T12:11:44.326Z,3.85
2023-02-02T12:14:22.739Z,4.09
2023-02-02T12:16:55.933Z,5.70
2023-02-02T12:19:25.544Z,7.33
2023-02-02T12:22:11.547Z,8.78
2023-02-02T12:24:44.926Z,9.54
2023-02-02T12:27:11.978Z,9.38
2023-02-02T12:29:51.622Z,8.75
2023-02-02T12:32:18.499Z,7.97
2023-02-02T12:34:53.116Z,7.41
2023-02-02T12:37:32.317Z,7.08
2023-02-02T12:39:59.387Z,6.71
2023-02-02T12:42:49.978Z,6.60
2023-02-02T12:45:23.595Z,6.44
2023-02-02T12:48:09.455Z,6.15
2023-02-02T12:50:42.854Z,5.78
2023-02-02T12:53:28.228Z,5.60
2023-02-02T12:55:55.381Z,5.51
2023-02-02T12:58:32.900Z,5.49
2023-02-02T13:01:07.070Z,5.47
2023-02-02T13:03:34.412Z,5.40
2023-02-02T13:06:04.836Z,5.29
2023-02-02T13:08:32.037Z,5.21
2023-02-02T13:11:07.891Z,5.11
2023-02-02T13:13:38.012Z,4.95
2023-02-02T13:16:08.204Z,4.79
2023-02-02T13:18:42.145Z,4.62
2023-02-02T13:21:16.363Z,4.46
2023-02-02T13:23:45.878Z,4.33
2023-02-02T13:26:16.275Z,4.21
2023-02-02T13:28:54.588Z,4.05
2023-02-02T13:31:43.426Z,3.90
2023-02-02T13:34:16.874Z,3.78
2023-02-02T13:36:47.132Z,3.65
2023-02-02T13:39:23.967Z,3.52
2023-02-02T13:41:51.841Z,3.41
2023-02-02T13:44:27.900Z,3.33
2023-02-02T13:47:21.453Z,3.27
2023-02-02T13:49:52.608Z,3.20
2023-02-02T13:52:32.343Z,3.18
2023-02-02T13:55:13.109Z,3.17
2023-02-02T13:57:58.892Z,3.13
2023-02-02T14:00:33.136Z,3.08
2023-02-02T14:03:04.768Z,3.02
2023-02-02T14:05:34.818Z,2.97
2023-02-02T14:08:07.977Z,2.98
2023-02-02T14:10:36.366Z,2.98
2023-02-02T14:13:29.919Z,2.99
2023-02-02T14:15:57.913Z,2.97
2023-02-02T14:18:43.674Z,2.98
2023-02-02T14:21:10.847Z,2.98
2023-02-02T14:23:53.837Z,2.99
2023-02-02T14:26:39.965Z,2.98
2023-02-02T14:29:36.175Z,2.98
2023-02-02T14:32:11.139Z,2.97
2023-02-02T14:34:39.696Z,2.95
2023-02-02T14:37:12.764Z,2.93
2023-02-02T14:39:53.326Z,2.91
2023-02-02T14:42:52.902Z,2.86
2023-02-02T14:45:31.437Z,2.83
2023-02-02T14:47:59.671Z,2.75
2023-02-02T14:50:35.673Z,2.69
2023-02-02T14:53:15.219Z,2.65
2023-02-02T14:56:02.628Z,2.61
2023-02-02T14:58:34.597Z,2.57
2023-02-02T15:01:07.997Z,2.55
2023-02-02T15:03:36.580Z,2.51
2023-02-02T15:06:14.107Z,2.47
2023-02-02T15:08:41.139Z,2.45
2023-02-02T15:11:44.307Z,2.42
2023-02-02T15:14:14.940Z,2.40
2023-02-02T15:16:42.619Z,2.38
2023-02-02T15:19:32.888Z,2.37
2023-02-02T15:22:05.075Z,2.34
2023-02-02T15:24:35.695Z,2.29
2023-02-02T15:27:04.185Z,2.25
2023-02-02T15:29:42.387Z,2.20
2023-02-02T15:32:14.762Z,2.15
2023-02-02T15:34:44.884Z,2.09
2023-02-02T15:37:14.605Z,2.04
2023-02-02T15:39:45.444Z,1.99
2023-02-02T15:42:40.329Z,1.94
2023-02-02T15:45:27.543Z,1.90
2023-02-02T15:47:55.720Z,1.87
2023-02-02T15:50:22.991Z,1.84
2023-02-02T15:52:51.278Z,1.80
2023-02-02T15:55:23.247Z,1.76
2023-02-02T15:57:54.882Z,1.73
2023-02-02T16:00:37.426Z,1.70
2023-02-02T16:03:09.969Z,1.69
2023-02-02T16:05:37.840Z,1.69
2023-02-02T16:08:13.228Z,1.68
2023-02-02T16:10:40.448Z,1.67
2023-02-02T16:13:07.499Z,1.66
2023-02-02T16:15:34.553Z,1.64
2023-02-02T16:18:10.149Z,1.62
2023-02-02T16:20:37.869Z,1.59
2023-02-02T16:23:09.728Z,1.57
2023-02-02T16:25:47.862Z,1.53
2023-02-02T16:28:16.525Z,1.51
2023-02-02T16:30:44.947Z,1.48
2023-02-02T16:33:27.722Z,1.47
2023-02-02T16:35:55.087Z,1.45
2023-02-02T16:38:22.034Z,1.42
2023-02-02T16:40:50.003Z,1.40
2023-02-02T16:43:19.315Z,1.39
2023-02-02T16:45:54.868Z,1.39
2023-02-02T16:48:30.520Z,1.39
2023-02-02T16:51:15.878Z,1.38
2023-02-02T16:53:47.325Z,1.36
2023-02-02T16:56:33.420Z,1.36
2023-02-02T16:59:21.552Z,1.35
2023-02-02T17:01:50.682Z,1.34
2023-02-02T17:04:20.882Z,1.32
2023-02-02T17:06:52.772Z,1.29
2023-02-02T17:09:29.309Z,1.23
2023-02-02T17:11:58.535Z,1.22
2023-02-02T17:14:35.799Z,1.27
2023-02-02T17:17:04.801Z,1.25
2023-02-02T17:19:32.160Z,1.20
2023-02-02T17:22:00.644Z,1.11
2023-02-02T17:24:27.924Z,1.04
2023-02-02T17:26:55.183Z,0.97
2023-02-02T17:29:22.722Z,0.88
2023-02-02T17:31:51.515Z,0.79
2023-02-02T17:34:18.946Z,0.72
2023-02-02T17:36:46.052Z,0.66
2023-02-02T17:39:13.290Z,0.61
2023-02-02T17:41:40.455Z,0.58
2023-02-02T17:44:09.472Z,0.53
2023-02-02T17:46:39.789Z,0.52
2023-02-02T17:49:07.235Z,0.51
2023-02-02T17:51:40.631Z,0.51
2023-02-02T17:54:12.086Z,0.51
2023-02-02T17:56:39.568Z,0.50
2023-02-02T17:59:07.013Z,0.51
2023-02-02T18:01:36.996Z,0.51
2023-02-02T18:04:06.029Z,0.51
2023-02-02T18:06:32.983Z,0.53
2023-02-02T18:09:00.235Z,0.53
2023-02-02T18:11:27.292Z,0.53
2023-02-02T18:13:54.244Z,0.54
2023-02-02T18:16:21.436Z,0.54
2023-02-02T18:18:48.755Z,0.55
2023-02-02T18:21:16.220Z,0.56
2023-02-02T18:23:46.649Z,0.56
2023-02-02T18:26:18.376Z,0.56
2023-02-02T18:28:48.264Z,0.56
2023-02-02T18:31:17.130Z,0.54
2023-02-02T18:33:44.758Z,0.55
2023-02-02T18:36:13.608Z,0.52
2023-02-02T18:38:41.554Z,0.46
2023-02-02T18:41:08.824Z,0.41
2023-02-02T18:43:35.967Z,0.40
2023-02-02T18:46:05.741Z,0.40
2023-02-02T18:48:32.895Z,0.37
2023-02-02T18:51:03.576Z,0.32
2023-02-02T18:53:30.733Z,0.29
2023-02-02T18:55:57.796Z,0.27
2023-02-02T18:58:27.208Z,0.25
2023-02-02T19:00:54.241Z,0.23
2023-02-02T19:03:21.403Z,0.19
2023-02-02T19:06:07.285Z,0.14
2023-02-02T19:08:34.439Z,0.08
2023-02-02T19:11:07.733Z,0.04
2023-02-02T19:13:34.893Z,-0.02
2023-02-02T19:16:16.600Z,-0.05
2023-02-02T19:18:45.781Z,-0.07
2023-02-02T19:21:15.922Z,-0.09
2023-02-02T19:23:45.622Z,-0.10
2023-02-02T19:26:24.170Z,-0.12
2023-02-02T19:28:52.211Z,-0.13
2023-02-02T19:31:19.474Z,-0.13
2023-02-02T19:33:48.566Z,-0.13
2023-02-02T19:36:27.179Z,-0.14
2023-02-02T19:39:14.538Z,-0.16
2023-02-02T19:41:42.779Z,-0.19
2023-02-02T19:44:20.184Z,-0.20
2023-02-02T19:46:49.305Z,-0.21
2023-02-02T19:49:19.801Z,-0.24
2023-02-02T19:51:54.394Z,-0.26
2023-02-02T19:54:29.368Z,-0.28
2023-02-02T19:56:57.946Z,-0.29
2023-02-02T19:59:29.913Z,-0.30
2023-02-02T20:01:57.991Z,-0.29
2023-02-02T20:04:27.297Z,-0.26
2023-02-02T20:06:59.508Z,-0.24
2023-02-02T20:09:29.487Z,-0.21
2023-02-02T20:11:56.951Z,-0.18
2023-02-02T20:14:32.803Z,-0.15
2023-02-02T20:17:02.725Z,-0.12
2023-02-02T20:19:32.989Z,-0.09
2023-02-02T20:22:00.816Z,-0.06
2023-02-02T20:24:32.171Z,-0.03
2023-02-02T20:27:04.398Z,-0.02
2023-02-02T20:29:40.508Z,-0.02
2023-02-02T20:32:17.271Z,0.00
2023-02-02T20:34:44.850Z,0.04
2023-02-02T20:37:11.894Z,0.05
2023-02-02T20:39:47.377Z,0.07
2023-02-02T20:42:16.434Z,0.09
2023-02-02T20:44:43.489Z,0.12
2023-02-02T20:47:10.747Z,0.15
2023-02-02T20:49:38.309Z,0.17
2023-02-02T20:52:07.523Z,0.18
2023-02-02T20:54:34.667Z,0.18
2023-02-02T20:57:01.942Z,0.18
2023-02-02T20:59:29.095Z,0.20
2023-02-02T21:01:56.415Z,0.21
2023-02-02T21:04:23.704Z,0.22
2023-02-02T21:06:50.957Z,0.23
2023-02-02T21:09:18.040Z,0.25
2023-02-02T21:11:45.061Z,0.26
2023-02-02T21:14:12.425Z,0.27
2023-02-02T21:16:39.624Z,0.26
2023-02-02T21:19:06.545Z,0.25
2023-02-02T21:21:33.748Z,0.26
2023-02-02T21:24:01.152Z,0.26
2023-02-02T21:26:29.780Z,0.26
2023-02-02T21:28:57.915Z,0.27
2023-02-02T21:31:25.459Z,0.27
2023-02-02T21:33:52.774Z,0.28
2023-02-02T21:36:25.934Z,0.29
2023-02-02T21:38:54.113Z,0.30
2023-02-02T21:41:21.103Z,0.30
2023-02-02T21:43:48.113Z,0.29
2023-02-02T21:46:19.038Z,0.27
2023-02-02T21:48:47.540Z,0.25
2023-02-02T21:51:23.818Z,0.23
2023-02-02T21:53:51.472Z,0.23
2023-02-02T21:56:32.035Z,0.24
2023-02-02T21:58:59.905Z,0.26
2023-02-02T22:01:30.157Z,0.28
2023-02-02T22:03:57.490Z,0.28
2023-02-02T22:06:35.228Z,0.29
2023-02-02T22:09:11.899Z,0.30
2023-02-02T22:11:51.291Z,0.31
2023-02-02T22:14:24.422Z,0.31
2023-02-02T22:16:52.670Z,0.31
2023-02-02T22:19:25.551Z,0.31
2023-02-02T22:21:53.635Z,0.33
2023-02-02T22:24:20.885Z,0.33
2023-02-02T22:26:48.156Z,0.34
2023-02-02T22:29:16.719Z,0.35
2023-02-02T22:31:43.998Z,0.33
2023-02-02T22:34:11.145Z,0.33
2023-02-02T22:36:38.311Z,0.33
2023-02-02T22:39:05.557Z,0.31
2023-02-02T22:41:32.686Z,0.29
2023-02-02T22:43:59.869Z,0.28
2023-02-02T22:46:27.074Z,0.26
2023-02-02T22:48:54.098Z,0.25
2023-02-02T22:51:21.135Z,0.25
2023-02-02T22:53:48.349Z,0.24
2023-02-02T22:56:15.445Z,0.23
2023-02-02T22:58:42.497Z,0.19
2023-02-02T23:01:11.237Z,0.16
2023-02-02T23:03:38.402Z,0.14
2023-02-02T23:06:05.499Z,0.13
2023-02-02T23:08:33.573Z,0.14
2023-02-02T23:11:00.836Z,0.13
2023-02-02T23:13:28.098Z,0.11
2023-02-02T23:15:56.306Z,0.08
2023-02-02T23:18:23.320Z,0.08
2023-02-02T23:20:50.481Z,0.07
2023-02-02T23:23:17.531Z,0.08
2023-02-02T23:25:44.692Z,0.09
2023-02-02T23:28:12.709Z,0.09
2023-02-02T23:30:39.834Z,0.09
2023-02-02T23:33:06.972Z,0.08
2023-02-02T23:35:33.919Z,0.04
2023-02-02T23:38:00.870Z,0.02
2023-02-02T23:40:28.202Z,0.01
2023-02-02T23:42:55.709Z,-0.02
2023-02-02T23:45:22.858Z,-0.06
2023-02-02T23:47:49.901Z,-0.09
2023-02-02T23:50:17.160Z,-0.10
2023-02-02T23:52:44.521Z,-0.10
2023-02-02T23:55:11.694Z,-0.10
2023-02-02T23:57:38.829Z,-0.10
